createdAt,value
2023-03-06T00:03:56.135Z,384.00
2023-03-06T00:07:56.144Z,382.00
2023-03-06T00:11:56.281Z,382.00
2023-03-06T00:15:56.436Z,382.00
2023-03-06T00:19:56.538Z,382.00
2023-03-06T00:23:56.646Z,376.00
2023-03-06T00:27:56.779Z,373.00
2023-03-06T00:31:56.917Z,369.00
2023-03-06T00:35:57.132Z,370.00
2023-03-06T00:39:57.178Z,375.00
2023-03-06T00:43:57.372Z,380.00
2023-03-06T00:47:57.463Z,379.00
2023-03-06T00:51:57.679Z,380.00
2023-03-06T00:55:57.777Z,379.00
2023-03-06T00:59:57.950Z,382.00
2023-03-06T01:03:58.069Z,375.00
2023-03-06T01:07:58.256Z,372.00
2023-03-06T01:11:58.411Z,373.00
2023-03-06T01:15:58.528Z,371.00
2023-03-06T01:19:58.670Z,374.00
2023-03-06T01:23:58.861Z,375.00
2023-03-06T01:27:59.031Z,369.00
2023-03-06T01:31:59.409Z,367.00
2023-03-06T01:35:59.429Z,371.00
2023-03-06T01:39:59.577Z,372.00
2023-03-06T01:43:59.782Z,369.00
2023-03-06T01:47:59.992Z,364.00
2023-03-06T01:52:00.174Z,368.00
2023-03-06T01:56:00.419Z,371.00
2023-03-06T02:00:00.618Z,371.00
2023-03-06T02:04:00.807Z,372.00
2023-03-06T02:08:00.770Z,372.00
2023-03-06T02:12:00.754Z,367.00
2023-03-06T02:16:00.719Z,370.00
2023-03-06T02:20:00.685Z,365.00
2023-03-06T02:24:00.698Z,369.00
2023-03-06T02:28:00.633Z,369.00
2023-03-06T02:32:00.657Z,368.00
2023-03-06T02:36:00.653Z,368.00
2023-03-06T02:40:00.515Z,367.00
2023-03-06T02:44:00.573Z,367.00
2023-03-06T02:48:00.480Z,369.00
2023-03-06T02:52:00.465Z,366.00
2023-03-06T02:56:00.365Z,363.00
2023-03-06T03:00:00.333Z,361.00
2023-03-06T03:04:00.344Z,357.00
2023-03-06T03:08:00.297Z,360.00
2023-03-06T03:12:00.251Z,357.00
2023-03-06T03:16:00.327Z,355.00
2023-03-06T03:20:00.186Z,357.00
2023-03-06T03:24:00.140Z,357.00
2023-03-06T03:28:00.328Z,358.00
2023-03-06T03:32:00.641Z,361.00
2023-03-06T03:36:00.506Z,358.00
2023-03-06T03:40:00.466Z,354.00
2023-03-06T03:44:00.432Z,354.00
2023-03-06T03:48:00.387Z,355.00
2023-03-06T03:52:00.368Z,357.00
2023-03-06T03:56:00.332Z,359.00
2023-03-06T04:00:00.272Z,363.00
2023-03-06T04:04:00.220Z,363.00
2023-03-06T04:08:00.220Z,362.00
2023-03-06T04:12:00.232Z,365.00
2023-03-06T04:16:00.291Z,369.00
2023-03-06T04:20:00.161Z,362.00
2023-03-06T04:24:00.122Z,361.00
2023-03-06T04:28:00.117Z,361.00
2023-03-06T04:32:00.444Z,363.00
2023-03-06T04:36:00.014Z,361.00
2023-03-06T04:39:59.996Z,365.00
2023-03-06T04:43:59.992Z,362.00
2023-03-06T04:47:59.902Z,360.00
2023-03-06T04:51:59.930Z,358.00
2023-03-06T04:56:00.130Z,356.00
2023-03-06T05:00:00.337Z,359.00
2023-03-06T05:04:00.471Z,361.00
2023-03-06T05:08:00.463Z,369.00
2023-03-06T05:12:00.580Z,379.00
2023-03-06T05:16:00.797Z,392.00
2023-03-06T05:20:00.965Z,402.00
2023-03-06T05:24:01.160Z,411.00
2023-03-06T05:28:01.131Z,414.00
2023-03-06T05:32:01.208Z,418.00
2023-03-06T05:36:01.041Z,417.00
2023-03-06T05:40:01.007Z,414.00
2023-03-06T05:44:01.007Z,410.00
2023-03-06T05:48:00.919Z,407.00
2023-03-06T05:52:00.930Z,409.00
2023-03-06T05:56:00.853Z,409.00
2023-03-06T06:00:00.829Z,414.00
2023-03-06T06:04:00.763Z,413.00
2023-03-06T06:08:00.733Z,415.00
2023-03-06T06:12:00.722Z,415.00
2023-03-06T06:16:00.758Z,412.00
2023-03-06T06:20:00.718Z,411.00
2023-03-06T06:24:00.665Z,413.00
2023-03-06T06:28:00.560Z,419.00
2023-03-06T06:32:00.580Z,417.00
2023-03-06T06:36:01.014Z,427.00
2023-03-06T06:40:00.692Z,504.00
2023-03-06T06:44:00.799Z,569.00
2023-03-06T06:48:00.945Z,588.00
2023-03-06T06:52:01.007Z,626.00
2023-03-06T06:56:01.081Z,641.00
2023-03-06T07:00:01.172Z,651.00
2023-03-06T07:04:01.202Z,658.00
2023-03-06T07:08:01.345Z,660.00
2023-03-06T07:12:01.250Z,668.00
2023-03-06T07:16:01.280Z,677.00
2023-03-06T07:20:01.223Z,684.00
2023-03-06T07:24:01.281Z,691.00
2023-03-06T07:28:01.209Z,692.00
2023-03-06T07:32:01.217Z,688.00
2023-03-06T07:36:01.141Z,690.00
2023-03-06T07:40:01.062Z,597.00
2023-03-06T07:44:01.072Z,624.00
2023-03-06T07:48:00.974Z,683.00
2023-03-06T07:52:00.922Z,677.00
2023-03-06T07:56:00.922Z,680.00
2023-03-06T08:00:00.875Z,688.00
2023-03-06T08:04:00.870Z,697.00
2023-03-06T08:08:00.812Z,717.00
2023-03-06T08:12:00.848Z,723.00
2023-03-06T08:16:00.821Z,733.00
2023-03-06T08:20:00.839Z,741.00
2023-03-06T08:24:00.801Z,755.00
2023-03-06T08:28:00.977Z,756.00
2023-03-06T08:32:01.120Z,759.00
2023-03-06T08:36:02.304Z,692.00
2023-03-06T08:40:00.675Z,743.00
2023-03-06T08:44:00.630Z,751.00
2023-03-06T08:48:00.594Z,768.00
2023-03-06T08:52:01.020Z,794.00
2023-03-06T08:56:00.541Z,833.00
2023-03-06T09:00:00.518Z,845.00
2023-03-06T09:04:00.473Z,859.00
2023-03-06T09:08:00.459Z,865.00
2023-03-06T09:12:00.430Z,873.00
2023-03-06T09:16:00.354Z,893.00
2023-03-06T09:20:00.330Z,905.00
2023-03-06T09:24:00.299Z,932.00
2023-03-06T09:28:10.905Z,862.00
2023-03-06T09:32:01.223Z,630.00
2023-03-06T09:36:00.239Z,547.00
2023-03-06T09:40:00.175Z,538.00
2023-03-06T09:44:00.258Z,485.00
2023-03-06T09:48:00.314Z,592.00
2023-03-06T09:52:00.479Z,631.00
2023-03-06T09:56:00.575Z,669.00
2023-03-06T10:00:03.878Z,708.00
2023-03-06T10:04:01.035Z,762.00
2023-03-06T10:08:00.688Z,777.00
2023-03-06T10:12:00.678Z,801.00
2023-03-06T10:16:00.694Z,825.00
2023-03-06T10:20:00.584Z,833.00
2023-03-06T10:24:00.522Z,865.00
2023-03-06T10:28:00.538Z,858.00
2023-03-06T10:32:00.625Z,833.00
2023-03-06T10:36:00.547Z,746.00
2023-03-06T10:40:00.412Z,744.00
2023-03-06T10:44:00.430Z,752.00
2023-03-06T10:48:00.354Z,764.00
2023-03-06T10:52:00.316Z,772.00
2023-03-06T10:56:00.265Z,762.00
2023-03-06T11:00:00.267Z,757.00
2023-03-06T11:04:00.359Z,780.00
2023-03-06T11:08:00.307Z,800.00
2023-03-06T11:12:07.744Z,817.00
2023-03-06T11:16:00.289Z,832.00
2023-03-06T11:20:00.222Z,838.00
2023-03-06T11:24:00.215Z,850.00
2023-03-06T11:28:00.125Z,858.00
2023-03-06T11:32:00.264Z,762.00
2023-03-06T11:36:00.254Z,789.00
2023-03-06T11:40:00.180Z,821.00
2023-03-06T11:44:00.338Z,839.00
2023-03-06T11:48:00.380Z,857.00
2023-03-06T11:52:00.327Z,865.00
2023-03-06T11:56:00.378Z,872.00
2023-03-06T12:00:00.394Z,884.00
2023-03-06T12:04:00.343Z,897.00
2023-03-06T12:08:00.428Z,910.00
2023-03-06T12:12:00.542Z,904.00
2023-03-06T12:16:00.565Z,900.00
2023-03-06T12:20:00.720Z,904.00
2023-03-06T12:24:00.723Z,910.00
2023-03-06T12:28:00.682Z,867.00
2023-03-06T12:32:00.763Z,780.00
2023-03-06T12:36:00.715Z,720.00
2023-03-06T12:40:00.545Z,687.00
2023-03-06T12:44:00.544Z,650.00
2023-03-06T12:48:00.513Z,612.00
2023-03-06T12:52:00.468Z,581.00
2023-03-06T12:56:00.425Z,555.00
2023-03-06T13:00:00.462Z,542.00
2023-03-06T13:04:00.365Z,505.00
2023-03-06T13:08:00.365Z,595.00
2023-03-06T13:12:00.301Z,595.00
2023-03-06T13:16:00.263Z,576.00
2023-03-06T13:20:00.222Z,557.00
2023-03-06T13:24:00.215Z,537.00
2023-03-06T13:28:00.136Z,591.00
2023-03-06T13:32:00.441Z,584.00
2023-03-06T13:36:00.407Z,586.00
2023-03-06T13:40:00.367Z,593.00
2023-03-06T13:44:00.508Z,590.00
2023-03-06T13:48:27.317Z,594.00
2023-03-06T13:52:01.316Z,594.00
2023-03-06T13:56:00.737Z,597.00
2023-03-06T14:00:08.781Z,602.00
2023-03-06T14:04:01.382Z,595.00
2023-03-06T14:08:00.196Z,596.00
2023-03-06T14:12:00.180Z,577.00
2023-03-06T14:16:00.136Z,584.00
2023-03-06T14:20:00.055Z,601.00
2023-03-06T14:24:00.753Z,573.00
2023-03-06T14:28:12.367Z,572.00
2023-03-06T14:32:01.232Z,576.00
2023-03-06T14:36:00.141Z,566.00
2023-03-06T14:40:00.017Z,563.00
2023-03-06T14:44:00.017Z,565.00
2023-03-06T14:47:59.968Z,548.00
2023-03-06T14:51:59.944Z,530.00
2023-03-06T14:55:59.904Z,507.00
2023-03-06T15:00:00.026Z,492.00
2023-03-06T15:04:00.029Z,481.00
2023-03-06T15:08:00.164Z,477.00
2023-03-06T15:12:00.199Z,469.00
2023-03-06T15:16:00.337Z,465.00
2023-03-06T15:20:00.338Z,461.00
2023-03-06T15:24:00.410Z,455.00
2023-03-06T15:28:00.375Z,454.00
2023-03-06T15:32:00.546Z,456.00
2023-03-06T15:36:00.528Z,456.00
2023-03-06T15:40:00.662Z,456.00
2023-03-06T15:44:00.838Z,454.00
2023-03-06T15:48:01.030Z,447.00
2023-03-06T15:52:01.215Z,447.00
2023-03-06T15:56:01.408Z,445.00
2023-03-06T16:00:01.602Z,453.00
2023-03-06T16:04:01.724Z,452.00
2023-03-06T16:08:01.885Z,450.00
2023-03-06T16:12:01.954Z,448.00
2023-03-06T16:16:01.974Z,447.00
2023-03-06T16:20:01.989Z,451.00
2023-03-06T16:24:01.930Z,449.00
2023-03-06T16:28:01.928Z,445.00
2023-03-06T16:32:02.140Z,446.00
2023-03-06T16:36:01.949Z,447.00
2023-03-06T16:40:01.903Z,448.00
2023-03-06T16:44:01.925Z,450.00
2023-03-06T16:48:01.955Z,450.00
2023-03-06T16:52:01.997Z,446.00
2023-03-06T16:56:02.016Z,444.00
2023-03-06T17:00:02.152Z,439.00
2023-03-06T17:04:02.102Z,443.00
2023-03-06T17:08:02.166Z,446.00
2023-03-06T17:12:02.237Z,447.00
2023-03-06T17:16:02.803Z,445.00
2023-03-06T17:20:02.430Z,447.00
2023-03-06T17:24:02.509Z,444.00
2023-03-06T17:28:02.631Z,446.00
2023-03-06T17:32:02.831Z,444.00
2023-03-06T17:36:02.912Z,444.00
2023-03-06T17:40:03.046Z,442.00
2023-03-06T17:44:03.161Z,437.00
2023-03-06T17:48:03.322Z,441.00
2023-03-06T17:52:03.527Z,442.00
2023-03-06T17:56:03.693Z,434.00
2023-03-06T18:00:03.825Z,435.00
2023-03-06T18:04:03.998Z,438.00
2023-03-06T18:08:04.244Z,442.00
2023-03-06T18:12:04.311Z,438.00
2023-03-06T18:16:04.581Z,441.00
2023-03-06T18:20:04.731Z,443.00
2023-03-06T18:24:04.892Z,446.00
2023-03-06T18:28:05.139Z,447.00
2023-03-06T18:32:05.513Z,447.00
2023-03-06T18:36:05.331Z,438.00
2023-03-06T18:40:05.263Z,437.00
2023-03-06T18:44:05.292Z,445.00
2023-03-06T18:48:05.255Z,454.00
2023-03-06T18:52:05.192Z,458.00
2023-03-06T18:56:05.178Z,453.00
2023-03-06T19:00:05.132Z,449.00
2023-03-06T19:04:05.134Z,445.00
2023-03-06T19:08:05.045Z,445.00
2023-03-06T19:12:05.036Z,442.00
2023-03-06T19:16:05.146Z,437.00
2023-03-06T19:20:05.808Z,434.00
2023-03-06T19:24:04.910Z,436.00
2023-03-06T19:28:04.842Z,435.00
2023-03-06T19:32:04.986Z,435.00
2023-03-06T19:36:04.791Z,435.00
2023-03-06T19:40:04.772Z,437.00
2023-03-06T19:44:04.714Z,436.00
2023-03-06T19:48:04.719Z,435.00
2023-03-06T19:52:04.687Z,431.00
2023-03-06T19:56:04.588Z,427.00
2023-03-06T20:00:04.591Z,431.00
2023-03-06T20:04:04.553Z,432.00
2023-03-06T20:08:04.549Z,433.00
2023-03-06T20:12:06.009Z,438.00
2023-03-06T20:16:04.491Z,439.00
2023-03-06T20:20:04.411Z,438.00
2023-03-06T20:24:04.397Z,438.00
2023-03-06T20:28:04.364Z,440.00
2023-03-06T20:32:04.332Z,438.00
2023-03-06T20:36:04.315Z,438.00
2023-03-06T20:40:04.284Z,437.00
2023-03-06T20:44:04.198Z,438.00
2023-03-06T20:48:04.167Z,435.00
2023-03-06T20:52:04.360Z,436.00
2023-03-06T20:56:04.083Z,436.00
2023-03-06T21:00:04.065Z,435.00
2023-03-06T21:04:03.997Z,431.00
2023-03-06T21:08:03.970Z,432.00
2023-03-06T21:12:03.927Z,432.00
2023-03-06T21:16:03.916Z,431.00
2023-03-06T21:20:03.912Z,432.00
2023-03-06T21:24:03.854Z,428.00
2023-03-06T21:28:03.790Z,426.00
2023-03-06T21:32:03.822Z,427.00
2023-03-06T21:36:03.769Z,429.00
2023-03-06T21:40:03.688Z,426.00
2023-03-06T21:44:03.740Z,423.00
2023-03-06T21:48:03.606Z,429.00
2023-03-06T21:52:03.602Z,430.00
2023-03-06T21:56:03.527Z,426.00
2023-03-06T22:00:03.501Z,425.00
2023-03-06T22:04:03.546Z,425.00
2023-03-06T22:08:03.415Z,427.00
2023-03-06T22:12:03.412Z,425.00
2023-03-06T22:16:03.460Z,428.00
2023-03-06T22:20:03.631Z,430.00
2023-03-06T22:24:03.728Z,432.00
2023-03-06T22:28:03.790Z,432.00
2023-03-06T22:32:03.976Z,425.00
2023-03-06T22:36:04.101Z,421.00
2023-03-06T22:40:04.112Z,431.00
2023-03-06T22:44:04.404Z,431.00
2023-03-06T22:48:10.883Z,429.00
2023-03-06T22:52:05.291Z,426.00
2023-03-06T22:56:04.275Z,427.00
2023-03-06T23:00:04.237Z,426.00
2023-03-06T23:04:04.436Z,427.00
2023-03-06T23:08:04.457Z,426.00
2023-03-06T23:12:04.620Z,424.00
2023-03-06T23:16:04.892Z,426.00
2023-03-06T23:20:04.988Z,428.00
2023-03-06T23:24:05.149Z,423.00
2023-03-06T23:28:05.322Z,422.00
2023-03-06T23:32:05.445Z,420.00
2023-03-06T23:36:05.608Z,416.00
2023-03-06T23:40:05.738Z,422.00
2023-03-06T23:44:05.912Z,422.00
2023-03-06T23:48:06.139Z,423.00
2023-03-06T23:52:06.364Z,417.00
2023-03-06T23:56:06.497Z,422.00
